createdAt,value
2023-10-19T00:00:39.697Z,32.80
2023-10-19T00:03:09.643Z,31.57
2023-10-19T00:05:37.730Z,35.60
2023-10-19T00:08:21.809Z,33.70
2023-10-19T00:10:54.063Z,39.38
2023-10-19T00:13:21.672Z,36.17
2023-10-19T00:15:50.148Z,36.28
2023-10-19T00:18:19.743Z,35.55
2023-10-19T00:20:54.277Z,35.60
2023-10-19T00:23:36.126Z,33.73
2023-10-19T00:26:19.884Z,33.83
2023-10-19T00:29:02.160Z,33.30
2023-10-19T00:31:30.278Z,33.85
2023-10-19T00:33:58.853Z,30.48
2023-10-19T00:36:27.443Z,31.97
2023-10-19T00:38:55.146Z,31.97
2023-10-19T00:41:33.647Z,33.23
2023-10-19T00:44:05.550Z,31.25
2023-10-19T00:46:36.123Z,37.23
2023-10-19T00:49:05.968Z,31.95
2023-10-19T00:51:56.093Z,32.93
2023-10-19T00:54:39.943Z,37.88
2023-10-19T00:57:12.043Z,33.08
2023-10-19T00:59:55.085Z,34.20
2023-10-19T01:02:25.039Z,34.95
2023-10-19T01:04:58.088Z,33.15
2023-10-19T01:07:29.546Z,32.58
2023-10-19T01:10:22.640Z,31.57
2023-10-19T01:12:51.972Z,32.40
2023-10-19T01:15:34.460Z,36.30
2023-10-19T01:18:04.245Z,30.30
2023-10-19T01:20:35.123Z,34.92
2023-10-19T01:23:10.463Z,36.03
2023-10-19T01:25:59.434Z,37.42
2023-10-19T01:28:46.248Z,39.67
2023-10-19T01:31:18.993Z,36.85
2023-10-19T01:33:50.337Z,37.03
2023-10-19T01:36:25.635Z,39.08
2023-10-19T01:38:59.959Z,39.90
2023-10-19T01:41:29.695Z,35.40
2023-10-19T01:43:59.210Z,33.88
2023-10-19T01:46:26.953Z,36.58
2023-10-19T01:48:57.037Z,42.98
2023-10-19T01:51:27.999Z,48.65
2023-10-19T01:54:04.282Z,48.23
2023-10-19T01:56:57.129Z,44.67
2023-10-19T01:59:28.972Z,43.80
2023-10-19T02:01:57.629Z,37.98
2023-10-19T02:04:34.339Z,38.13
2023-10-19T02:07:04.038Z,33.05
2023-10-19T02:09:34.468Z,33.45
2023-10-19T02:12:06.782Z,31.97
2023-10-19T02:14:40.615Z,33.67
2023-10-19T02:17:34.633Z,32.65
2023-10-19T02:20:00.306Z,31.77
2023-10-19T02:22:31.488Z,33.35
2023-10-19T02:24:59.322Z,29.12
2023-10-19T02:27:33.038Z,24.45
2023-10-19T02:29:58.202Z,25.70
2023-10-19T02:32:26.243Z,25.25
2023-10-19T02:34:54.166Z,27.40
2023-10-19T02:37:22.251Z,25.23
2023-10-19T02:39:50.784Z,22.65
2023-10-19T02:42:19.075Z,21.93
2023-10-19T02:44:47.942Z,19.92
2023-10-19T02:47:16.260Z,17.95
2023-10-19T02:49:45.478Z,18.02
2023-10-19T02:52:16.250Z,15.90
2023-10-19T02:54:44.548Z,15.72
2023-10-19T02:57:14.510Z,15.23
2023-10-19T02:59:41.950Z,15.95
2023-10-19T03:02:18.543Z,14.45
2023-10-19T03:04:47.950Z,14.05
2023-10-19T03:07:17.383Z,16.15
2023-10-19T03:09:46.828Z,16.10
2023-10-19T03:12:15.643Z,15.60
2023-10-19T03:14:44.071Z,16.77
2023-10-19T03:17:12.477Z,15.25
2023-10-19T03:19:43.750Z,14.18
2023-10-19T03:22:13.461Z,13.28
2023-10-19T03:24:47.163Z,16.60
2023-10-19T03:27:25.364Z,14.50
2023-10-19T03:29:58.040Z,12.10
2023-10-19T03:32:32.494Z,11.03
2023-10-19T03:35:01.349Z,13.35
2023-10-19T03:37:33.392Z,14.35
2023-10-19T03:40:03.181Z,15.30
2023-10-19T03:42:33.247Z,15.63
2023-10-19T03:45:03.575Z,15.63
2023-10-19T03:47:37.804Z,16.35
2023-10-19T03:50:08.102Z,18.82
2023-10-19T03:52:40.468Z,17.92
2023-10-19T03:55:24.476Z,19.98
2023-10-19T03:57:54.192Z,17.70
2023-10-19T04:00:23.682Z,17.95
2023-10-19T04:02:54.554Z,19.57
2023-10-19T04:05:24.294Z,19.60
2023-10-19T04:07:55.238Z,20.02
2023-10-19T04:10:27.893Z,18.35
2023-10-19T04:12:56.501Z,16.75
2023-10-19T04:15:24.261Z,18.37
2023-10-19T04:17:52.373Z,17.62
2023-10-19T04:20:23.560Z,17.10
2023-10-19T04:22:52.297Z,18.12
2023-10-19T04:25:21.453Z,17.65
2023-10-19T04:27:50.570Z,15.40
2023-10-19T04:30:20.623Z,18.45
2023-10-19T06:02:51.438Z,11.18
2023-10-19T06:05:20.733Z,12.82
2023-10-19T06:07:50.952Z,9.40
2023-10-19T06:10:23.707Z,11.75
2023-10-19T06:12:53.422Z,10.55
2023-10-19T06:15:25.726Z,11.90
2023-10-19T06:17:54.427Z,10.13
2023-10-19T06:20:25.802Z,10.10
2023-10-19T06:23:03.789Z,10.03
2023-10-19T06:25:33.334Z,10.58
2023-10-19T06:28:03.362Z,11.03
2023-10-19T06:30:32.119Z,11.50
2023-10-19T06:33:02.672Z,9.98
2023-10-19T06:35:35.147Z,12.07
2023-10-19T06:38:08.072Z,12.78
2023-10-19T06:40:39.602Z,13.80
2023-10-19T06:43:07.334Z,13.72
2023-10-19T06:45:35.628Z,12.15
2023-10-19T06:48:05.729Z,14.05
2023-10-19T06:50:33.908Z,14.50
2023-10-19T06:53:01.656Z,13.13
2023-10-19T06:55:29.636Z,16.30
2023-10-19T06:57:58.884Z,13.88
2023-10-19T07:00:30.239Z,14.25
2023-10-19T07:02:59.338Z,12.80
2023-10-19T07:05:26.959Z,13.72
2023-10-19T07:07:56.376Z,15.15
2023-10-19T07:10:25.549Z,14.53
2023-10-19T07:12:58.030Z,12.88
2023-10-19T07:15:27.217Z,11.40
2023-10-19T07:17:58.104Z,11.53
2023-10-19T07:20:36.627Z,13.08
2023-10-19T07:23:10.431Z,12.82
2023-10-19T07:28:27.990Z,13.10
2023-10-19T07:30:55.963Z,15.00
2023-10-19T07:33:23.833Z,14.28
2023-10-19T07:36:00.374Z,11.78
2023-10-19T07:38:31.193Z,13.08
2023-10-19T07:40:59.185Z,13.60
2023-10-19T07:43:27.138Z,14.18
2023-10-19T07:45:55.260Z,13.00
2023-10-19T07:48:23.300Z,16.27
2023-10-19T07:50:51.104Z,16.42
2023-10-19T07:53:18.923Z,14.53
2023-10-19T07:55:50.089Z,15.30
2023-10-19T07:58:37.993Z,16.02
2023-10-19T08:01:11.946Z,15.35
2023-10-19T08:03:39.957Z,14.30
2023-10-19T08:06:08.415Z,16.85
2023-10-19T08:08:36.938Z,16.73
2023-10-19T08:11:04.606Z,16.05
2023-10-19T08:13:33.487Z,14.13
2023-10-19T08:16:01.502Z,14.55
2023-10-19T08:18:30.145Z,18.02
2023-10-19T08:20:58.182Z,14.47
2023-10-19T08:23:27.842Z,15.23
2023-10-19T08:25:57.779Z,18.32
2023-10-19T08:28:26.322Z,16.42
2023-10-19T08:31:02.523Z,18.48
2023-10-19T08:33:50.865Z,18.73
2023-10-19T08:36:21.421Z,18.85
2023-10-19T08:38:49.604Z,16.62
2023-10-19T08:41:18.915Z,16.10
2023-10-19T08:43:46.673Z,16.70
2023-10-19T08:46:16.144Z,19.45
2023-10-19T08:48:44.479Z,15.40
2023-10-19T08:51:16.674Z,17.23
2023-10-19T08:53:46.045Z,18.70
2023-10-19T08:56:16.423Z,17.02
2023-10-19T08:58:44.150Z,16.32
2023-10-19T09:01:12.585Z,15.63
2023-10-19T09:03:42.068Z,14.43
2023-10-19T09:06:13.841Z,16.30
2023-10-19T09:08:43.121Z,14.60
2023-10-19T09:11:16.844Z,14.63
2023-10-19T09:13:50.193Z,13.57
2023-10-19T09:16:21.743Z,13.80
2023-10-19T09:18:50.408Z,16.12
2023-10-19T09:21:29.642Z,17.17
2023-10-19T09:23:58.494Z,15.58
2023-10-19T09:26:26.819Z,15.80
2023-10-19T09:28:59.369Z,19.73
2023-10-19T09:31:27.374Z,17.02
2023-10-19T09:33:58.031Z,16.23
2023-10-19T09:36:28.636Z,21.10
2023-10-19T09:38:58.528Z,19.02
2023-10-19T09:41:28.283Z,15.32
2023-10-19T09:44:01.233Z,19.55
2023-10-19T09:46:34.547Z,18.35
2023-10-19T09:49:02.878Z,17.87
2023-10-19T09:51:31.065Z,17.65
2023-10-19T09:54:05.357Z,19.95
2023-10-19T09:56:40.175Z,18.87
2023-10-19T09:59:10.392Z,19.98
2023-10-19T10:02:02.570Z,20.25
2023-10-19T10:04:34.715Z,18.02
2023-10-19T10:07:06.108Z,19.52
2023-10-19T10:09:44.848Z,17.80
2023-10-19T10:12:24.168Z,17.77
2023-10-19T10:15:09.942Z,18.45
2023-10-19T10:20:19.930Z,23.55
2023-10-19T10:23:08.916Z,18.42
2023-10-19T10:25:38.142Z,22.07
2023-10-19T10:28:07.521Z,21.87
2023-10-19T10:30:34.954Z,20.02
2023-10-19T10:33:03.519Z,24.32
2023-10-19T10:35:41.696Z,24.32
2023-10-19T10:38:11.348Z,20.92
2023-10-19T10:40:50.539Z,22.13
2023-10-19T10:43:20.872Z,23.30
2023-10-19T10:45:48.684Z,22.32
2023-10-19T10:48:19.145Z,22.17
2023-10-19T10:50:47.981Z,22.90
2023-10-19T10:53:19.527Z,26.10
2023-10-19T10:55:47.380Z,28.32
2023-10-19T10:58:20.458Z,30.37
2023-10-19T11:00:50.350Z,24.75
2023-10-19T11:03:18.145Z,21.52
2023-10-19T11:05:47.270Z,22.62
2023-10-19T11:08:23.577Z,22.93
2023-10-19T11:10:51.793Z,29.72
2023-10-19T11:13:25.777Z,24.87
2023-10-19T11:15:59.911Z,25.70
2023-10-19T11:18:37.313Z,27.85
2023-10-19T11:21:11.471Z,24.85
2023-10-19T11:23:44.758Z,26.37
2023-10-19T11:26:14.137Z,21.27
2023-10-19T11:28:47.893Z,23.00
2023-10-19T11:31:24.762Z,25.55
2023-10-19T11:33:55.116Z,25.75
2023-10-19T11:36:24.856Z,27.20
2023-10-19T11:38:54.061Z,27.48
2023-10-19T11:41:22.630Z,27.42
2023-10-19T11:43:52.311Z,25.45
2023-10-19T11:46:20.517Z,26.35
2023-10-19T11:48:48.744Z,24.90
2023-10-19T11:51:17.106Z,24.52
2023-10-19T11:53:44.921Z,32.00
2023-10-19T11:56:15.379Z,34.27
2023-10-19T11:58:43.971Z,30.85
2023-10-19T12:01:15.981Z,35.13
2023-10-19T12:03:46.008Z,31.60
2023-10-19T12:06:18.189Z,37.25
2023-10-19T12:08:46.383Z,35.08
2023-10-19T12:11:18.189Z,38.60
2023-10-19T12:13:47.291Z,34.88
2023-10-19T12:16:18.194Z,35.60
2023-10-19T12:18:50.660Z,30.92
2023-10-19T12:21:19.887Z,30.60
2023-10-19T12:23:53.361Z,31.85
2023-10-19T12:26:21.452Z,29.05
2023-10-19T12:28:50.691Z,30.95
2023-10-19T12:31:23.453Z,27.30
2023-10-19T12:33:51.625Z,27.65
2023-10-19T12:36:30.578Z,26.90
2023-10-19T12:38:58.712Z,27.37
2023-10-19T12:41:26.783Z,30.05
2023-10-19T12:44:06.377Z,29.95
2023-10-19T12:46:36.108Z,29.48
2023-10-19T12:49:11.126Z,35.23
2023-10-19T12:51:40.396Z,29.05
2023-10-19T12:54:09.786Z,31.68
2023-10-19T12:56:37.924Z,27.13
2023-10-19T12:59:08.627Z,26.52
2023-10-19T13:01:37.228Z,27.02
2023-10-19T13:04:07.176Z,29.23
2023-10-19T13:06:37.098Z,28.10
2023-10-19T13:09:05.147Z,27.50
2023-10-19T13:11:34.318Z,28.27
2023-10-19T13:14:02.566Z,28.17
2023-10-19T13:16:32.671Z,26.60
2023-10-19T13:19:04.752Z,30.02
2023-10-19T13:21:33.806Z,27.32
2023-10-19T13:24:03.429Z,27.37
2023-10-19T13:26:31.247Z,29.48
2023-10-19T13:28:59.927Z,27.80
2023-10-19T13:31:27.997Z,29.72
2023-10-19T13:33:55.977Z,28.95
2023-10-19T13:36:24.062Z,28.25
2023-10-19T13:38:51.586Z,25.32
2023-10-19T13:41:19.780Z,23.73
2023-10-19T13:43:48.758Z,25.95
2023-10-19T13:46:16.588Z,26.68
2023-10-19T13:48:44.759Z,25.48
2023-10-19T13:51:16.613Z,23.32
2023-10-19T13:53:46.620Z,27.45
2023-10-19T13:56:16.565Z,26.02
2023-10-19T13:58:44.780Z,23.00
2023-10-19T14:01:15.110Z,18.95
2023-10-19T14:03:43.056Z,21.52
2023-10-19T14:06:18.715Z,18.67
2023-10-19T14:08:46.534Z,20.37
2023-10-19T14:11:15.298Z,22.42
2023-10-19T14:13:44.300Z,24.77
2023-10-19T14:16:12.982Z,21.68
2023-10-19T14:18:41.546Z,22.07
2023-10-19T14:21:20.657Z,20.02
2023-10-19T14:23:49.906Z,20.32
2023-10-19T14:26:19.378Z,21.70
2023-10-19T14:28:47.187Z,21.95
2023-10-19T14:31:15.140Z,26.97
2023-10-19T14:33:43.629Z,24.75
2023-10-19T14:36:12.187Z,21.07
2023-10-19T14:38:41.070Z,27.85
2023-10-19T14:41:17.264Z,23.52
2023-10-19T14:43:45.589Z,21.77
2023-10-19T14:46:14.678Z,18.15
2023-10-19T14:48:43.613Z,21.37
2023-10-19T14:51:11.778Z,18.75
2023-10-19T14:53:39.858Z,23.07
2023-10-19T14:56:09.354Z,22.62
2023-10-19T14:58:37.364Z,20.17
2023-10-19T15:01:07.898Z,22.77
2023-10-19T15:03:36.719Z,21.50
2023-10-19T15:06:08.118Z,25.17
2023-10-19T15:08:36.210Z,22.13
2023-10-19T15:11:04.590Z,22.17
2023-10-19T15:13:32.245Z,24.90
2023-10-19T15:16:03.731Z,23.07
2023-10-19T15:18:31.449Z,20.65
2023-10-19T15:21:03.309Z,20.60
2023-10-19T15:23:31.332Z,20.23
2023-10-19T15:25:59.165Z,21.85
2023-10-19T15:28:26.894Z,18.67
2023-10-19T15:30:54.697Z,20.88
2023-10-19T15:33:23.098Z,20.55
2023-10-19T15:35:51.044Z,21.45
2023-10-19T15:38:19.625Z,20.10
2023-10-19T15:40:47.246Z,21.75
2023-10-19T15:43:14.769Z,23.90
2023-10-19T15:45:44.895Z,18.25
2023-10-19T15:48:15.412Z,19.05
2023-10-19T15:50:43.208Z,17.27
2023-10-19T15:53:11.299Z,18.05
2023-10-19T15:55:39.364Z,19.95
2023-10-19T15:58:07.043Z,18.73
2023-10-19T16:00:35.926Z,16.42
2023-10-19T16:03:04.104Z,16.90
2023-10-19T16:05:32.300Z,18.20
2023-10-19T16:08:00.338Z,18.02
2023-10-19T16:10:28.266Z,31.23
2023-10-19T16:12:56.190Z,44.35
2023-10-19T16:15:24.358Z,37.23
2023-10-19T16:17:52.372Z,33.42
2023-10-19T16:20:21.510Z,33.18
2023-10-19T16:22:52.637Z,33.23
2023-10-19T16:25:21.166Z,31.75
2023-10-19T16:27:49.507Z,29.18
2023-10-19T16:30:18.572Z,26.55
2023-10-19T16:32:46.418Z,23.98
2023-10-19T16:35:15.331Z,21.80
2023-10-19T16:37:43.534Z,22.40
2023-10-19T16:40:14.905Z,20.62
2023-10-19T16:42:43.384Z,28.75
2023-10-19T16:45:11.874Z,22.02
2023-10-19T16:47:44.832Z,21.80
2023-10-19T16:50:17.501Z,20.17
2023-10-19T16:52:45.613Z,18.02
2023-10-19T16:55:13.958Z,18.40
2023-10-19T16:57:41.872Z,21.60
2023-10-19T17:00:13.258Z,20.32
2023-10-19T17:02:43.514Z,26.17
2023-10-19T17:05:12.324Z,27.87
2023-10-19T17:07:43.559Z,25.95
2023-10-19T17:10:12.133Z,28.40
2023-10-19T17:12:39.904Z,23.47
2023-10-19T17:15:10.316Z,28.10
2023-10-19T17:17:38.256Z,26.42
2023-10-19T17:20:07.265Z,26.17
2023-10-19T17:22:35.525Z,24.20
2023-10-19T17:25:03.611Z,25.72
2023-10-19T17:27:31.632Z,22.25
2023-10-19T17:29:59.713Z,23.27
2023-10-19T17:32:29.137Z,25.90
2023-10-19T17:34:56.824Z,20.88
2023-10-19T17:37:24.638Z,18.87
2023-10-19T17:39:55.966Z,20.88
2023-10-19T17:42:23.979Z,19.98
2023-10-19T17:44:51.718Z,21.50
2023-10-19T17:47:19.518Z,22.00
2023-10-19T17:49:47.721Z,24.10
2023-10-19T17:52:17.293Z,24.45
2023-10-19T17:54:47.925Z,25.55
2023-10-19T17:57:19.781Z,24.30
2023-10-19T17:59:51.066Z,22.42
2023-10-19T18:02:19.098Z,24.23
2023-10-19T18:04:48.996Z,23.55
2023-10-19T18:07:36.829Z,19.40
2023-10-19T18:10:06.420Z,24.67
2023-10-19T18:12:34.346Z,22.87
2023-10-19T18:15:02.817Z,18.85
2023-10-19T18:17:31.361Z,21.57
2023-10-19T18:19:59.024Z,19.75
2023-10-19T18:22:26.667Z,21.05
2023-10-19T18:24:54.352Z,20.82
2023-10-19T18:27:23.640Z,18.67
2023-10-19T18:29:51.652Z,21.27
2023-10-19T18:32:19.376Z,20.40
2023-10-19T18:34:47.287Z,22.82
2023-10-19T18:37:18.232Z,22.60
2023-10-19T18:39:54.981Z,20.10
2023-10-19T18:42:23.086Z,24.35
2023-10-19T18:44:51.118Z,20.95
2023-10-19T18:47:19.374Z,24.67
2023-10-19T18:49:50.431Z,19.62
2023-10-19T18:52:17.851Z,21.93
2023-10-19T18:54:46.957Z,32.93
2023-10-19T18:57:14.573Z,33.55
2023-10-19T18:59:43.718Z,31.40
2023-10-19T19:02:12.259Z,26.87
2023-10-19T19:04:42.233Z,19.40
2023-10-19T19:07:11.465Z,21.23
2023-10-19T19:09:39.420Z,18.85
2023-10-19T19:12:07.460Z,17.45
2023-10-19T19:14:35.557Z,17.62
2023-10-19T19:17:05.613Z,16.10
2023-10-19T19:19:33.673Z,15.65
2023-10-19T19:22:01.548Z,17.15
2023-10-19T19:24:29.521Z,24.63
2023-10-19T19:26:57.229Z,20.82
2023-10-19T19:29:25.847Z,30.37
2023-10-19T19:31:54.739Z,26.85
2023-10-19T19:34:24.438Z,25.92
2023-10-19T19:36:53.075Z,22.55
2023-10-19T19:39:21.029Z,20.23
2023-10-19T19:41:49.430Z,16.42
2023-10-19T19:44:16.979Z,18.87
2023-10-19T19:46:46.226Z,18.85
2023-10-19T19:49:15.682Z,19.00
2023-10-19T19:51:43.467Z,19.77
2023-10-19T19:54:13.121Z,20.43
2023-10-19T19:56:40.854Z,20.50
2023-10-19T19:59:11.562Z,21.48
2023-10-19T20:01:39.449Z,20.43
2023-10-19T20:04:07.312Z,17.65
2023-10-19T20:06:36.790Z,20.30
2023-10-19T20:09:05.198Z,20.20
2023-10-19T20:11:33.068Z,23.00
2023-10-19T20:14:00.737Z,19.73
2023-10-19T20:16:28.886Z,27.85
2023-10-19T20:18:58.568Z,50.78
2023-10-19T20:21:26.604Z,20.23
2023-10-19T20:23:54.685Z,18.87
2023-10-19T20:26:22.896Z,16.23
2023-10-19T20:28:50.923Z,16.85
2023-10-19T20:31:19.228Z,13.68
2023-10-19T20:33:47.136Z,18.07
2023-10-19T20:36:15.075Z,17.00
2023-10-19T20:38:42.940Z,14.33
2023-10-19T20:41:14.888Z,13.48
2023-10-19T20:43:46.316Z,12.23
2023-10-19T20:46:16.894Z,13.93
2023-10-19T20:48:46.366Z,13.32
2023-10-19T20:51:20.209Z,12.25
2023-10-19T20:53:49.142Z,12.10
2023-10-19T20:56:17.577Z,12.13
2023-10-19T20:58:45.600Z,13.55
2023-10-19T21:01:14.386Z,14.78
2023-10-19T21:03:42.840Z,12.05
2023-10-19T21:06:12.092Z,13.20
2023-10-19T21:08:40.972Z,13.22
2023-10-19T21:11:19.539Z,15.58
2023-10-19T21:13:51.899Z,17.62
2023-10-19T21:16:20.272Z,14.98
2023-10-19T21:18:49.048Z,15.90
2023-10-19T21:21:16.829Z,15.15
2023-10-19T21:23:45.430Z,17.57
2023-10-19T21:26:14.697Z,18.42
2023-10-19T21:28:43.842Z,16.60
2023-10-19T21:31:11.703Z,19.75
2023-10-19T21:33:40.137Z,13.25
2023-10-19T21:36:08.031Z,17.35
2023-10-19T21:38:36.253Z,17.98
2023-10-19T21:41:07.699Z,15.63
2023-10-19T21:43:36.182Z,16.23
2023-10-19T21:46:04.616Z,15.43
2023-10-19T21:48:32.160Z,16.97
2023-10-19T21:51:03.750Z,17.90
2023-10-19T21:53:31.756Z,16.37
2023-10-19T21:55:59.602Z,16.52
2023-10-19T21:58:27.811Z,14.47
2023-10-19T22:00:58.164Z,15.20
2023-10-19T22:03:26.876Z,16.70
2023-10-19T22:05:54.799Z,15.93
2023-10-19T22:08:22.825Z,13.65
2023-10-19T22:10:51.662Z,13.08
2023-10-19T22:13:19.893Z,15.10
2023-10-19T22:15:47.463Z,16.50
2023-10-19T22:18:18.645Z,13.78
2023-10-19T22:20:47.269Z,17.12
2023-10-19T22:23:16.297Z,15.25
2023-10-19T22:25:44.431Z,15.13
2023-10-19T22:28:15.073Z,15.75
2023-10-19T22:30:43.492Z,14.65
2023-10-19T22:33:11.725Z,13.53
2023-10-19T22:35:39.846Z,12.93
2023-10-19T22:38:27.563Z,12.40
2023-10-19T22:40:56.550Z,13.25
2023-10-19T22:43:24.498Z,11.97
2023-10-19T22:45:52.758Z,9.85
2023-10-19T22:48:20.772Z,10.45
2023-10-19T22:50:48.807Z,11.08
2023-10-19T22:53:16.654Z,14.10
2023-10-19T22:55:44.654Z,10.70
2023-10-19T22:58:12.645Z,10.72
2023-10-19T23:00:40.819Z,9.73
2023-10-19T23:03:10.526Z,11.05
2023-10-19T23:05:38.322Z,10.18
2023-10-19T23:10:54.900Z,12.70
2023-10-19T23:13:24.890Z,10.38
2023-10-19T23:15:54.236Z,10.45
2023-10-19T23:18:23.170Z,10.80
2023-10-19T23:20:56.341Z,12.37
2023-10-19T23:23:24.357Z,10.28
2023-10-19T23:25:56.059Z,10.48
2023-10-19T23:28:23.538Z,9.58
2023-10-19T23:30:52.697Z,11.22
2023-10-19T23:33:20.537Z,11.45
2023-10-19T23:35:48.727Z,11.90
2023-10-19T23:38:20.664Z,13.13
2023-10-19T23:40:49.640Z,12.18
2023-10-19T23:43:19.111Z,14.00
2023-10-19T23:45:49.940Z,10.15
2023-10-19T23:48:23.869Z,10.72
2023-10-19T23:50:51.391Z,10.25
2023-10-19T23:53:19.431Z,11.25
2023-10-19T23:55:48.214Z,12.65
2023-10-19T23:58:16.771Z,10.88
